Aérodrome :
LOGIN :

S'inscrire | Disclaimer

   EN    FR    IT 

 










Légende :    VFR   VFR Marginal   IFR   IFR Intensif   IFR Très Intensif
Visi : 
Plafond : 
>= 8 km
>= 3000ft
5 à 8 km
1000 à 3000 ft
1500m à 5 km
500 à 1000 ft
800 à 1500m
200 à 500 ft
< 800m
< 200 ft
Symboles :   Orages  Brouillard  Fortes neiges  Fortes précipitations  Vent > 20 kt
SIGMETs :   Divers  Orages  Givrage  Turbulence  Onde Orograph.  Cendres Volcan.







- Altitude de l'aérodrome : 410 ft
- Code IATA : AVB


LIPA - Aviano AB Pordenone

DERNIER METAR :
  • 271255Z 20008KT 9999 FEW060 27/16 Q1019 RMK SCT VIS MIN 9999 WIND THR05 19006KT WIND THR23 21008KT A3010 BLU

METARs EXPIRÉS :
  • 271155Z 21006KT 9999 FEW050 27/17 Q1019 RMK FEW VIS MIN 9999 WIND THR05 21007KT WIND THR23 23007KT A3011 BLU
  • 271055Z 21004KT 9999 FEW060 26/17 Q1020 RMK FEW VIS MIN 9999 WIND THR05 VRB03KT WIND THR23 00000KT A3013 BLU

TAF TAF LIPA
Valide du 27 à 12h jusqu'au 27 à 21h UTC


271100Z 2712/2721 21005KT 9999 FEW050
Pas de NOTAMs connus pour ce terrain.



MET'MAP, la Météo Aéronautique d'un coup d'oeil ! - Copyright ORBIFLY Décembre 2007 - Disclaimer

ORBIFLY MET'MAP TEAM :

Programmation & Développement : Alexandra Zaïnal
Conception & Développement : Baudouin d'Aumeries
Co-Programmation & Développement : Marc-Olivier Méhu
Soutien technique & logistique : Manuel Goepfert

Contact : metmap@orbifly.com




SOURCES & CREDITS :

   NOAA